JST539 YMML-YSSY
Flight info
| Callsign | JST539 |
|---|---|
| Flight time | 1h 3m |
| Altitude | 35000 |
| Route | ML H129 DOSEL Y59 RIVET |
| Aircraft | A320/M-SDE3FGHIRWY/LB1 |
Departure
| Time | 2026-04-21 02:13 |
|---|---|
| Airport | Melbourne Airport (YMML) |
Arrival
| Time | 2026-04-21 03:17 |
|---|---|
| Airport | Sydney Kingsford Smith International Airport (YSSY) |
| Time | Latitude | Longitude | Altitude | Speed | Heading |
|---|---|---|---|---|---|
| 2026-04-21 01:58 | -37.67523 | 144.84639 | 360 ft | 0 kts | 171° |
| 2026-04-21 02:05 | -37.67510 | 144.84636 | 362 ft | 2 kts | 172° |
| 2026-04-21 02:06 | -37.67494 | 144.84633 | 358 ft | 2 kts | 173° |
| 2026-04-21 02:06 | -37.67478 | 144.84630 | 359 ft | 2 kts | 173° |
| 2026-04-21 02:06 | -37.67461 | 144.84628 | 360 ft | 2 kts | 182° |
| 2026-04-21 02:06 | -37.67445 | 144.84633 | 363 ft | 2 kts | 255° |
| 2026-04-21 02:07 | -37.67444 | 144.84640 | 361 ft | 0 kts | 256° |
| 2026-04-21 02:08 | -37.67445 | 144.84635 | 355 ft | 2 kts | 256° |
| 2026-04-21 02:09 | -37.67449 | 144.84617 | 357 ft | 1 kts | 256° |
| 2026-04-21 02:09 | -37.67452 | 144.84596 | 356 ft | 5 kts | 259° |
| 2026-04-21 02:09 | -37.67459 | 144.84527 | 357 ft | 11 kts | 262° |
| 2026-04-21 02:09 | -37.67471 | 144.84422 | 363 ft | 13 kts | 261° |
| 2026-04-21 02:10 | -37.67486 | 144.84291 | 362 ft | 17 kts | 262° |
| 2026-04-21 02:10 | -37.67508 | 144.84162 | 361 ft | 14 kts | 237° |
| 2026-04-21 02:10 | -37.67605 | 144.84136 | 358 ft | 17 kts | 172° |
| 2026-04-21 02:10 | -37.67737 | 144.84161 | 361 ft | 20 kts | 172° |
| 2026-04-21 02:11 | -37.67828 | 144.84173 | 356 ft | 13 kts | 185° |
| 2026-04-21 02:11 | -37.67870 | 144.84122 | 355 ft | 7 kts | 255° |
| 2026-04-21 02:11 | -37.67872 | 144.84107 | 355 ft | 0 kts | 260° |
| 2026-04-21 02:12 | -37.67874 | 144.84097 | 357 ft | 5 kts | 260° |
| 2026-04-21 02:12 | -37.67883 | 144.84023 | 354 ft | 9 kts | 261° |
| 2026-04-21 02:12 | -37.67848 | 144.83963 | 357 ft | 11 kts | 350° |
| 2026-04-21 02:12 | -37.67680 | 144.83932 | 358 ft | 55 kts | 352° |
| 2026-04-21 02:13 | -37.67094 | 144.83823 | 380 ft | 112 kts | 351° |
| 2026-04-21 02:13 | -37.66184 | 144.83656 | 539 ft | 142 kts | 355° |
| 2026-04-21 02:13 | -37.65201 | 144.83468 | 1165 ft | 146 kts | 353° |
| 2026-04-21 02:13 | -37.64149 | 144.83260 | 1687 ft | 160 kts | 352° |
| 2026-04-21 02:14 | -37.63015 | 144.83045 | 2248 ft | 171 kts | 352° |
| 2026-04-21 02:14 | -37.61751 | 144.82804 | 2617 ft | 196 kts | 352° |
| 2026-04-21 02:14 | -37.60322 | 144.82533 | 3030 ft | 219 kts | 351° |
| 2026-04-21 02:14 | -37.58715 | 144.82590 | 3500 ft | 246 kts | 14° |
| 2026-04-21 02:15 | -37.57100 | 144.83485 | 4262 ft | 259 kts | 23° |
| 2026-04-21 02:15 | -37.55480 | 144.84478 | 5177 ft | 266 kts | 23° |
| 2026-04-21 02:15 | -37.53796 | 144.85507 | 6038 ft | 271 kts | 23° |
| 2026-04-21 02:15 | -37.52085 | 144.86548 | 6952 ft | 275 kts | 23° |
| 2026-04-21 02:16 | -37.50345 | 144.87603 | 7794 ft | 280 kts | 24° |
| 2026-04-21 02:16 | -37.48572 | 144.88680 | 8607 ft | 286 kts | 24° |
| 2026-04-21 02:16 | -37.46766 | 144.89776 | 9438 ft | 291 kts | 24° |
| 2026-04-21 02:16 | -37.44936 | 144.90920 | 10241 ft | 297 kts | 30° |
| 2026-04-21 02:17 | -37.43284 | 144.92517 | 10896 ft | 306 kts | 45° |
| 2026-04-21 02:17 | -37.41916 | 144.94688 | 11145 ft | 329 kts | 55° |
| 2026-04-21 02:17 | -37.40562 | 144.97117 | 11464 ft | 347 kts | 56° |
| 2026-04-21 02:17 | -37.39164 | 144.99629 | 12092 ft | 354 kts | 56° |
| 2026-04-21 02:18 | -37.37761 | 145.02140 | 12789 ft | 358 kts | 56° |
| 2026-04-21 02:18 | -37.36313 | 145.04713 | 13486 ft | 362 kts | 56° |
| 2026-04-21 02:18 | -37.34846 | 145.07305 | 14181 ft | 366 kts | 56° |
| 2026-04-21 02:18 | -37.33361 | 145.09924 | 14786 ft | 370 kts | 56° |
| 2026-04-21 02:19 | -37.31861 | 145.12564 | 15402 ft | 373 kts | 56° |
| 2026-04-21 02:19 | -37.30347 | 145.15224 | 16017 ft | 376 kts | 56° |
| 2026-04-21 02:19 | -37.28821 | 145.17906 | 16617 ft | 379 kts | 56° |
| 2026-04-21 02:19 | -37.27285 | 145.20614 | 17215 ft | 382 kts | 56° |
| 2026-04-21 02:20 | -37.25757 | 145.23308 | 17796 ft | 386 kts | 56° |
| 2026-04-21 02:20 | -37.24191 | 145.26060 | 18401 ft | 389 kts | 57° |
| 2026-04-21 02:20 | -37.22608 | 145.28838 | 18964 ft | 393 kts | 57° |
| 2026-04-21 02:20 | -37.21015 | 145.31634 | 19502 ft | 396 kts | 57° |
| 2026-04-21 02:21 | -37.19408 | 145.34453 | 20046 ft | 399 kts | 56° |
| 2026-04-21 02:21 | -37.17785 | 145.37292 | 20591 ft | 402 kts | 56° |
| 2026-04-21 02:21 | -37.16150 | 145.40147 | 21123 ft | 404 kts | 56° |
| 2026-04-21 02:21 | -37.14506 | 145.43023 | 21633 ft | 407 kts | 56° |
| 2026-04-21 02:22 | -37.12850 | 145.45919 | 22154 ft | 410 kts | 56° |
| 2026-04-21 02:22 | -37.11205 | 145.48792 | 22650 ft | 413 kts | 56° |
| 2026-04-21 02:22 | -37.09523 | 145.51723 | 23147 ft | 415 kts | 56° |
| 2026-04-21 02:22 | -37.07831 | 145.54668 | 23641 ft | 419 kts | 56° |
| 2026-04-21 02:23 | -37.06122 | 145.57640 | 24077 ft | 422 kts | 56° |
| 2026-04-21 02:23 | -37.04401 | 145.60629 | 24469 ft | 425 kts | 55° |
| 2026-04-21 02:23 | -37.02668 | 145.63632 | 24865 ft | 427 kts | 55° |
| 2026-04-21 02:23 | -37.00921 | 145.66658 | 25252 ft | 430 kts | 55° |
| 2026-04-21 02:24 | -36.99165 | 145.69700 | 25644 ft | 432 kts | 55° |
| 2026-04-21 02:24 | -36.97401 | 145.72759 | 26037 ft | 435 kts | 55° |
| 2026-04-21 02:24 | -36.95625 | 145.75837 | 26421 ft | 438 kts | 55° |
| 2026-04-21 02:24 | -36.93862 | 145.78888 | 26808 ft | 440 kts | 55° |
| 2026-04-21 02:25 | -36.92059 | 145.82005 | 27152 ft | 444 kts | 55° |
| 2026-04-21 02:25 | -36.90239 | 145.85141 | 27500 ft | 447 kts | 55° |
| 2026-04-21 02:25 | -36.88407 | 145.88294 | 27859 ft | 450 kts | 55° |
| 2026-04-21 02:25 | -36.86563 | 145.91468 | 28239 ft | 452 kts | 55° |
| 2026-04-21 02:26 | -36.84709 | 145.94656 | 28610 ft | 455 kts | 55° |
| 2026-04-21 02:26 | -36.82844 | 145.97861 | 28982 ft | 458 kts | 55° |
| 2026-04-21 02:26 | -36.80965 | 146.01086 | 29340 ft | 461 kts | 54° |
| 2026-04-21 02:26 | -36.79075 | 146.04328 | 29698 ft | 463 kts | 54° |
| 2026-04-21 02:27 | -36.77193 | 146.07545 | 30043 ft | 467 kts | 54° |
| 2026-04-21 02:27 | -36.75271 | 146.10826 | 30360 ft | 470 kts | 54° |
| 2026-04-21 02:27 | -36.73338 | 146.14128 | 30668 ft | 473 kts | 54° |
| 2026-04-21 02:27 | -36.71398 | 146.17451 | 30973 ft | 475 kts | 54° |
| 2026-04-21 02:28 | -36.69449 | 146.20783 | 31359 ft | 475 kts | 54° |
| 2026-04-21 02:28 | -36.67503 | 146.24103 | 31787 ft | 475 kts | 54° |
| 2026-04-21 02:28 | -36.65559 | 146.27424 | 32215 ft | 474 kts | 54° |
| 2026-04-21 02:28 | -36.63616 | 146.30743 | 32634 ft | 474 kts | 54° |
| 2026-04-21 02:29 | -36.61671 | 146.34046 | 33072 ft | 474 kts | 54° |
| 2026-04-21 02:29 | -36.59718 | 146.37351 | 33467 ft | 474 kts | 54° |
| 2026-04-21 02:29 | -36.57796 | 146.40611 | 33880 ft | 474 kts | 55° |
| 2026-04-21 02:29 | -36.55848 | 146.43919 | 34305 ft | 473 kts | 55° |
| 2026-04-21 02:30 | -36.53901 | 146.47221 | 34684 ft | 473 kts | 54° |
| 2026-04-21 02:30 | -36.51957 | 146.50517 | 35039 ft | 473 kts | 54° |
| 2026-04-21 02:30 | -36.50006 | 146.53812 | 35301 ft | 474 kts | 54° |
| 2026-04-21 02:31 | -36.46098 | 146.60412 | 35374 ft | 475 kts | 54° |
| 2026-04-21 02:31 | -36.42180 | 146.67008 | 35372 ft | 474 kts | 54° |
| 2026-04-21 02:32 | -36.38287 | 146.73554 | 35369 ft | 474 kts | 54° |
| 2026-04-21 02:32 | -36.34354 | 146.80123 | 35368 ft | 474 kts | 54° |
| 2026-04-21 02:33 | -36.30434 | 146.86704 | 35377 ft | 474 kts | 54° |
| 2026-04-21 02:33 | -36.26519 | 146.93293 | 35371 ft | 475 kts | 54° |
| 2026-04-21 02:34 | -36.22611 | 146.99815 | 35369 ft | 475 kts | 54° |
| 2026-04-21 02:34 | -36.18660 | 147.06367 | 35363 ft | 475 kts | 54° |
| 2026-04-21 02:35 | -36.14705 | 147.12920 | 35378 ft | 475 kts | 54° |
| 2026-04-21 02:35 | -36.10755 | 147.19483 | 35376 ft | 476 kts | 54° |
| 2026-04-21 02:36 | -36.06800 | 147.26042 | 35367 ft | 476 kts | 54° |
| 2026-04-21 02:36 | -36.02860 | 147.32549 | 35369 ft | 476 kts | 54° |
| 2026-04-21 02:37 | -35.98886 | 147.39093 | 35385 ft | 476 kts | 54° |
| 2026-04-21 02:37 | -35.94911 | 147.45635 | 35382 ft | 476 kts | 54° |
| 2026-04-21 02:38 | -35.90936 | 147.52171 | 35379 ft | 476 kts | 54° |
| 2026-04-21 02:38 | -35.86979 | 147.58654 | 35379 ft | 476 kts | 54° |
| 2026-04-21 02:39 | -35.82994 | 147.65179 | 35377 ft | 476 kts | 54° |
| 2026-04-21 02:39 | -35.79004 | 147.71695 | 35377 ft | 476 kts | 54° |
| 2026-04-21 02:40 | -35.75010 | 147.78206 | 35375 ft | 476 kts | 54° |
| 2026-04-21 02:40 | -35.71017 | 147.84713 | 35373 ft | 476 kts | 54° |
| 2026-04-21 02:41 | -35.67043 | 147.91165 | 35371 ft | 476 kts | 54° |
| 2026-04-21 02:41 | -35.63035 | 147.97654 | 35377 ft | 477 kts | 54° |
| 2026-04-21 02:42 | -35.59029 | 148.04146 | 35375 ft | 477 kts | 54° |
| 2026-04-21 02:42 | -35.55023 | 148.10636 | 35376 ft | 477 kts | 54° |
| 2026-04-21 02:43 | -35.51005 | 148.17115 | 35366 ft | 477 kts | 54° |
| 2026-04-21 02:43 | -35.46977 | 148.23586 | 35380 ft | 477 kts | 54° |
| 2026-04-21 02:44 | -35.42974 | 148.30008 | 35378 ft | 477 kts | 54° |
| 2026-04-21 02:44 | -35.38948 | 148.36469 | 35376 ft | 477 kts | 54° |
| 2026-04-21 02:45 | -35.34915 | 148.42925 | 35373 ft | 477 kts | 54° |
| 2026-04-21 02:45 | -35.30876 | 148.49374 | 35385 ft | 477 kts | 54° |
| 2026-04-21 02:46 | -35.27515 | 148.54734 | 35388 ft | 477 kts | 54° |
| 2026-04-21 02:46 | -35.22812 | 148.62212 | 35379 ft | 477 kts | 54° |
| 2026-04-21 02:47 | -35.18762 | 148.68644 | 35375 ft | 477 kts | 54° |
| 2026-04-21 02:47 | -35.14718 | 148.75075 | 35375 ft | 477 kts | 54° |
| 2026-04-21 02:48 | -35.11345 | 148.80411 | 35386 ft | 478 kts | 54° |
| 2026-04-21 02:48 | -35.07275 | 148.86827 | 35382 ft | 478 kts | 54° |
| 2026-04-21 02:49 | -35.03212 | 148.93245 | 35377 ft | 478 kts | 54° |
| 2026-04-21 02:49 | -34.99141 | 148.99663 | 35379 ft | 478 kts | 54° |
| 2026-04-21 02:50 | -34.94399 | 149.07115 | 35398 ft | 479 kts | 54° |
| 2026-04-21 02:50 | -34.91005 | 149.12440 | 35395 ft | 479 kts | 54° |
| 2026-04-21 02:51 | -34.86920 | 149.18844 | 35392 ft | 478 kts | 54° |
| 2026-04-21 02:51 | -34.84881 | 149.22039 | 35185 ft | 478 kts | 54° |
| 2026-04-21 02:51 | -34.82838 | 149.25235 | 34850 ft | 478 kts | 54° |
| 2026-04-21 02:51 | -34.80780 | 149.28450 | 33823 ft | 483 kts | 54° |
| 2026-04-21 02:52 | -34.78757 | 149.31599 | 33185 ft | 472 kts | 54° |
| 2026-04-21 02:52 | -34.76746 | 149.34723 | 32672 ft | 468 kts | 54° |
| 2026-04-21 02:52 | -34.74751 | 149.37844 | 32148 ft | 465 kts | 56° |
| 2026-04-21 02:52 | -34.73047 | 149.41146 | 31621 ft | 459 kts | 65° |
| 2026-04-21 02:53 | -34.71565 | 149.44569 | 31094 ft | 456 kts | 65° |
| 2026-04-21 02:53 | -34.70097 | 149.47956 | 30569 ft | 450 kts | 65° |
| 2026-04-21 02:53 | -34.68638 | 149.51313 | 29995 ft | 448 kts | 65° |
| 2026-04-21 02:53 | -34.67188 | 149.54634 | 29486 ft | 443 kts | 65° |
| 2026-04-21 02:54 | -34.65748 | 149.57924 | 28975 ft | 439 kts | 65° |
| 2026-04-21 02:54 | -34.64323 | 149.61178 | 28500 ft | 435 kts | 65° |
| 2026-04-21 02:54 | -34.62926 | 149.64366 | 27991 ft | 431 kts | 65° |
| 2026-04-21 02:54 | -34.61522 | 149.67566 | 27501 ft | 428 kts | 65° |
| 2026-04-21 02:55 | -34.60130 | 149.70740 | 27042 ft | 424 kts | 65° |
| 2026-04-21 02:55 | -34.58749 | 149.73886 | 26580 ft | 421 kts | 65° |
| 2026-04-21 02:55 | -34.57375 | 149.77009 | 26142 ft | 418 kts | 65° |
| 2026-04-21 02:55 | -34.56012 | 149.80105 | 25703 ft | 415 kts | 65° |
| 2026-04-21 02:56 | -34.54656 | 149.83182 | 25279 ft | 412 kts | 65° |
| 2026-04-21 02:56 | -34.51971 | 149.89278 | 24433 ft | 408 kts | 65° |
| 2026-04-21 02:56 | -34.50663 | 149.92246 | 23990 ft | 401 kts | 65° |
| 2026-04-21 02:57 | -34.49355 | 149.95211 | 23501 ft | 397 kts | 65° |
| 2026-04-21 02:57 | -34.48058 | 149.98149 | 23069 ft | 393 kts | 65° |
| 2026-04-21 02:57 | -34.46771 | 150.01055 | 22637 ft | 389 kts | 65° |
| 2026-04-21 02:57 | -34.45494 | 150.03936 | 22175 ft | 387 kts | 65° |
| 2026-04-21 02:58 | -34.44226 | 150.06792 | 21731 ft | 383 kts | 65° |
| 2026-04-21 02:58 | -34.42968 | 150.09627 | 21274 ft | 381 kts | 65° |
| 2026-04-21 02:58 | -34.41717 | 150.12442 | 20820 ft | 378 kts | 65° |
| 2026-04-21 02:58 | -34.40473 | 150.15239 | 20359 ft | 376 kts | 65° |
| 2026-04-21 02:59 | -34.39235 | 150.18025 | 19906 ft | 375 kts | 65° |
| 2026-04-21 02:59 | -34.38017 | 150.20763 | 19440 ft | 374 kts | 65° |
| 2026-04-21 02:59 | -34.36785 | 150.23529 | 18975 ft | 373 kts | 65° |
| 2026-04-21 02:59 | -34.35556 | 150.26287 | 18489 ft | 371 kts | 65° |
| 2026-04-21 03:00 | -34.34333 | 150.29026 | 17996 ft | 369 kts | 65° |
| 2026-04-21 03:00 | -34.33131 | 150.31710 | 17543 ft | 355 kts | 65° |
| 2026-04-21 03:00 | -34.31966 | 150.34311 | 17109 ft | 350 kts | 64° |
| 2026-04-21 03:00 | -34.30815 | 150.36892 | 16672 ft | 348 kts | 65° |
| 2026-04-21 03:01 | -34.29668 | 150.39463 | 16224 ft | 346 kts | 64° |
| 2026-04-21 03:01 | -34.28523 | 150.42021 | 15784 ft | 345 kts | 64° |
| 2026-04-21 03:01 | -34.27395 | 150.44536 | 15355 ft | 344 kts | 64° |
| 2026-04-21 03:01 | -34.26260 | 150.47080 | 14922 ft | 343 kts | 64° |
| 2026-04-21 03:02 | -34.25127 | 150.49621 | 14483 ft | 343 kts | 65° |
| 2026-04-21 03:02 | -34.23994 | 150.52159 | 14027 ft | 343 kts | 64° |
| 2026-04-21 03:02 | -34.22861 | 150.54688 | 13566 ft | 341 kts | 64° |
| 2026-04-21 03:02 | -34.21735 | 150.57198 | 13130 ft | 339 kts | 64° |
| 2026-04-21 03:03 | -34.20613 | 150.59695 | 12691 ft | 337 kts | 64° |
| 2026-04-21 03:03 | -34.19497 | 150.62175 | 12274 ft | 335 kts | 64° |
| 2026-04-21 03:03 | -34.18406 | 150.64604 | 11852 ft | 330 kts | 64° |
| 2026-04-21 03:03 | -34.17330 | 150.67006 | 11449 ft | 323 kts | 64° |
| 2026-04-21 03:04 | -34.16248 | 150.69426 | 10724 ft | 330 kts | 64° |
| 2026-04-21 03:04 | -34.15171 | 150.71823 | 10291 ft | 319 kts | 64° |
| 2026-04-21 03:04 | -34.14141 | 150.74108 | 9992 ft | 303 kts | 64° |
| 2026-04-21 03:04 | -34.13148 | 150.76307 | 9607 ft | 294 kts | 65° |
| 2026-04-21 03:05 | -34.12170 | 150.78476 | 9470 ft | 293 kts | 65° |
| 2026-04-21 03:05 | -34.11192 | 150.80641 | 9325 ft | 295 kts | 65° |
| 2026-04-21 03:05 | -34.10213 | 150.82812 | 8992 ft | 293 kts | 65° |
| 2026-04-21 03:05 | -34.09239 | 150.84967 | 8635 ft | 293 kts | 65° |
| 2026-04-21 03:06 | -34.08273 | 150.87111 | 8275 ft | 290 kts | 65° |
| 2026-04-21 03:06 | -34.07327 | 150.89211 | 7917 ft | 288 kts | 65° |
| 2026-04-21 03:06 | -34.06373 | 150.91323 | 7555 ft | 285 kts | 65° |
| 2026-04-21 03:06 | -34.05428 | 150.93419 | 7208 ft | 284 kts | 65° |
| 2026-04-21 03:07 | -34.04486 | 150.95499 | 6850 ft | 281 kts | 65° |
| 2026-04-21 03:07 | -34.03554 | 150.97563 | 6488 ft | 279 kts | 65° |
| 2026-04-21 03:07 | -34.02578 | 150.99583 | 6135 ft | 281 kts | 54° |
| 2026-04-21 03:07 | -34.01054 | 151.01038 | 5998 ft | 285 kts | 25° |
| 2026-04-21 03:08 | -33.99113 | 151.01503 | 5993 ft | 287 kts | 359° |
| 2026-04-21 03:08 | -33.97145 | 151.01329 | 5671 ft | 287 kts | 353° |
| 2026-04-21 03:08 | -33.95164 | 151.01050 | 5347 ft | 287 kts | 353° |
| 2026-04-21 03:08 | -33.93184 | 151.00759 | 5103 ft | 286 kts | 353° |
| 2026-04-21 03:09 | -33.91211 | 151.00469 | 4820 ft | 286 kts | 353° |
| 2026-04-21 03:09 | -33.89236 | 151.00175 | 4537 ft | 285 kts | 353° |
| 2026-04-21 03:09 | -33.87274 | 150.99875 | 4257 ft | 284 kts | 353° |
| 2026-04-21 03:09 | -33.85324 | 150.99573 | 4045 ft | 281 kts | 353° |
| 2026-04-21 03:10 | -33.83375 | 150.99267 | 4007 ft | 283 kts | 353° |
| 2026-04-21 03:10 | -33.81432 | 150.98962 | 4006 ft | 281 kts | 353° |
| 2026-04-21 03:10 | -33.79485 | 150.98661 | 4007 ft | 281 kts | 353° |
| 2026-04-21 03:10 | -33.77548 | 150.98372 | 4008 ft | 281 kts | 354° |
| 2026-04-21 03:11 | -33.75646 | 150.98535 | 3803 ft | 276 kts | 19° |
| 2026-04-21 03:11 | -33.74018 | 150.99658 | 3242 ft | 270 kts | 49° |
| 2026-04-21 03:11 | -33.73088 | 151.01540 | 3021 ft | 258 kts | 79° |
| 2026-04-21 03:11 | -33.72883 | 151.03663 | 3002 ft | 257 kts | 91° |
| 2026-04-21 03:12 | -33.72839 | 151.05804 | 3003 ft | 256 kts | 98° |
| 2026-04-21 03:12 | -33.73334 | 151.07788 | 3005 ft | 246 kts | 127° |
| 2026-04-21 03:12 | -33.74483 | 151.09276 | 3008 ft | 242 kts | 141° |
| 2026-04-21 03:12 | -33.75758 | 151.10598 | 3009 ft | 243 kts | 142° |
| 2026-04-21 03:13 | -33.77036 | 151.11866 | 3006 ft | 232 kts | 142° |
| 2026-04-21 03:13 | -33.78249 | 151.13054 | 2943 ft | 219 kts | 147° |
| 2026-04-21 03:13 | -33.79603 | 151.13727 | 2707 ft | 213 kts | 168° |
| 2026-04-21 03:13 | -33.81043 | 151.14091 | 2428 ft | 211 kts | 168° |
| 2026-04-21 03:14 | -33.82470 | 151.14451 | 2151 ft | 208 kts | 169° |
| 2026-04-21 03:14 | -33.83881 | 151.14814 | 1868 ft | 205 kts | 169° |
| 2026-04-21 03:14 | -33.85213 | 151.15159 | 1595 ft | 185 kts | 169° |
| 2026-04-21 03:14 | -33.86402 | 151.15467 | 1356 ft | 165 kts | 169° |
| 2026-04-21 03:15 | -33.87459 | 151.15741 | 1165 ft | 147 kts | 169° |
| 2026-04-21 03:15 | -33.88407 | 151.15986 | 988 ft | 133 kts | 170° |
| 2026-04-21 03:15 | -33.89273 | 151.16211 | 797 ft | 129 kts | 170° |
| 2026-04-21 03:15 | -33.90141 | 151.16436 | 649 ft | 125 kts | 169° |
| 2026-04-21 03:16 | -33.90974 | 151.16652 | 435 ft | 122 kts | 171° |
| 2026-04-21 03:16 | -33.91811 | 151.16869 | 301 ft | 125 kts | 172° |
| 2026-04-21 03:16 | -33.92662 | 151.17089 | 124 ft | 125 kts | 171° |
| 2026-04-21 03:16 | -33.93501 | 151.17300 | 20 ft | 115 kts | 168° |
| 2026-04-21 03:17 | -33.94117 | 151.17462 | 20 ft | 52 kts | 168° |
| 2026-04-21 03:17 | -33.94314 | 151.17541 | 28 ft | 18 kts | 154° |
| 2026-04-21 03:17 | -33.94411 | 151.17612 | 25 ft | 16 kts | 142° |
| 2026-04-21 03:17 | -33.94423 | 151.17623 | 27 ft | 0 kts | 141° |
| 2026-04-21 03:18 | -33.94440 | 151.17639 | 26 ft | 7 kts | 142° |
| 2026-04-21 03:18 | -33.94490 | 151.17686 | 26 ft | 12 kts | 142° |
| 2026-04-21 03:19 | -33.94505 | 151.17774 | 23 ft | 11 kts | 38° |
| 2026-04-21 03:19 | -33.94422 | 151.17764 | 23 ft | 13 kts | 346° |
| 2026-04-21 03:19 | -33.94321 | 151.17733 | 22 ft | 17 kts | 345° |
| 2026-04-21 03:19 | -33.94198 | 151.17694 | 21 ft | 20 kts | 346° |
| 2026-04-21 03:20 | -33.94061 | 151.17652 | 22 ft | 22 kts | 346° |
| 2026-04-21 03:20 | -33.93933 | 151.17619 | 19 ft | 15 kts | 348° |
| 2026-04-21 03:20 | -33.93861 | 151.17696 | 19 ft | 16 kts | 77° |
| 2026-04-21 03:20 | -33.93811 | 151.17777 | 22 ft | 12 kts | 17° |
| 2026-04-21 03:21 | -33.93735 | 151.17794 | 29 ft | 9 kts | 11° |
| 2026-04-21 03:21 | -33.93666 | 151.17810 | 31 ft | 12 kts | 9° |
| 2026-04-21 03:21 | -33.93615 | 151.17820 | 31 ft | 10 kts | 9° |
| 2026-04-21 03:21 | -33.93544 | 151.17833 | 31 ft | 9 kts | 358° |
| 2026-04-21 03:22 | -33.93526 | 151.17775 | 30 ft | 6 kts | 281° |
| 2026-04-21 03:22 | -33.93525 | 151.17768 | 30 ft | 0 kts | 281° |